createdAt,value
2018-08-08T00:02:28.509Z,8.57
2018-08-08T00:07:34.750Z,8.23
2018-08-08T00:12:40.669Z,8.57
2018-08-08T00:17:45.765Z,7.73
2018-08-08T00:22:49.938Z,7.07
2018-08-08T00:27:54.073Z,7.37
2018-08-08T00:32:58.247Z,8.63
2018-08-08T00:38:02.364Z,6.73
2018-08-08T00:43:06.632Z,8.13
2018-08-08T00:48:10.752Z,12.47
2018-08-08T00:53:14.974Z,8.57
2018-08-08T00:58:19.084Z,6.67
2018-08-08T01:03:23.296Z,11.73
2018-08-08T01:08:27.522Z,15.33
2018-08-08T01:13:31.648Z,16.07
2018-08-08T01:18:35.769Z,13.07
2018-08-08T01:23:39.905Z,13.27
2018-08-08T01:28:44.489Z,14.80
2018-08-08T01:33:48.721Z,19.70
2018-08-08T01:38:52.990Z,17.27
2018-08-08T01:43:57.184Z,11.93
2018-08-08T01:49:01.342Z,10.77
2018-08-08T01:54:05.458Z,14.60
2018-08-08T01:59:09.768Z,6.23
2018-08-08T02:04:13.893Z,16.03
2018-08-08T02:09:18.013Z,8.43
2018-08-08T02:14:22.365Z,11.73
2018-08-08T02:19:26.526Z,7.10
2018-08-08T02:24:30.703Z,13.13
2018-08-08T02:29:34.846Z,20.13
2018-08-08T02:34:38.953Z,8.57
2018-08-08T02:39:43.045Z,14.63
2018-08-08T02:44:47.217Z,11.40
2018-08-08T02:49:51.360Z,12.30
2018-08-08T02:54:55.493Z,8.23
2018-08-08T02:59:59.559Z,14.03
2018-08-08T03:05:04.327Z,7.83
2018-08-08T03:10:11.037Z,6.40
2018-08-08T03:15:16.717Z,18.00
2018-08-08T03:20:20.801Z,13.53
2018-08-08T03:25:24.982Z,7.37
2018-08-08T03:30:29.052Z,7.47
2018-08-08T03:35:33.176Z,11.13
2018-08-08T03:40:37.047Z,12.63
2018-08-08T03:45:41.994Z,11.60
2018-08-08T03:50:46.206Z,10.43
2018-08-08T03:55:50.451Z,6.93
2018-08-08T04:00:54.540Z,17.33
2018-08-08T04:05:58.639Z,9.07
2018-08-08T04:11:02.785Z,10.27
2018-08-08T04:16:07.658Z,9.73
2018-08-08T04:21:11.797Z,16.77
2018-08-08T04:26:15.955Z,15.33
2018-08-08T04:31:20.343Z,18.53
2018-08-08T04:36:24.479Z,16.10
2018-08-08T04:41:28.748Z,15.47
2018-08-08T04:46:32.915Z,25.67
2018-08-08T04:51:37.646Z,28.63
2018-08-08T04:56:43.003Z,27.93
2018-08-08T05:01:47.220Z,22.40
2018-08-08T05:06:51.491Z,19.60
2018-08-08T05:11:55.676Z,25.27
2018-08-08T05:16:59.843Z,16.17
2018-08-08T05:22:04.585Z,17.43
2018-08-08T05:27:08.982Z,21.73
2018-08-08T05:32:13.296Z,22.23
2018-08-08T05:37:17.530Z,23.80
2018-08-08T05:42:21.677Z,20.57
2018-08-08T09:20:04.551Z,15.30
2018-08-08T09:25:08.887Z,12.57
2018-08-08T09:30:13.379Z,16.60
2018-08-08T09:35:17.621Z,12.60
2018-08-08T09:40:21.825Z,14.77
2018-08-08T09:45:25.881Z,10.23
2018-08-08T09:50:30.645Z,9.50
2018-08-08T09:55:34.771Z,14.17
2018-08-08T10:00:44.107Z,9.00
2018-08-08T10:05:48.239Z,11.20
2018-08-08T10:10:52.352Z,11.97
2018-08-08T10:15:56.458Z,11.33
2018-08-08T10:21:00.581Z,9.77
2018-08-08T10:26:04.812Z,7.13
2018-08-08T10:31:08.897Z,6.57
2018-08-08T10:36:13.057Z,8.03
2018-08-08T10:41:17.205Z,8.97
2018-08-08T10:46:21.298Z,12.43
2018-08-08T10:51:25.380Z,8.60
2018-08-08T10:56:29.542Z,6.63
2018-08-08T11:01:33.686Z,8.83
2018-08-08T11:06:38.477Z,10.70
2018-08-08T11:11:42.675Z,8.53
2018-08-08T11:16:47.041Z,6.87
2018-08-08T11:21:51.174Z,11.87
2018-08-08T11:26:55.477Z,7.97
2018-08-08T11:32:03.231Z,11.40
2018-08-08T11:37:07.458Z,6.63
2018-08-08T11:42:11.712Z,12.13
2018-08-08T11:47:15.927Z,6.90
2018-08-08T11:52:20.066Z,8.60
2018-08-08T11:57:24.470Z,9.97
2018-08-08T12:02:29.624Z,11.10
2018-08-08T12:07:34.012Z,7.87
2018-08-08T12:12:38.205Z,6.67
2018-08-08T12:17:42.269Z,5.50
2018-08-08T12:22:47.607Z,8.77
2018-08-08T12:27:51.767Z,5.90
2018-08-08T12:32:55.886Z,9.17
2018-08-08T12:38:00.001Z,9.67
2018-08-08T12:43:04.929Z,5.50
2018-08-08T12:48:09.022Z,9.33
2018-08-08T12:53:13.149Z,7.13
2018-08-08T12:58:17.235Z,8.30
2018-08-08T13:03:21.472Z,8.27
2018-08-08T13:08:25.582Z,7.53
2018-08-08T13:13:29.703Z,4.60
2018-08-08T13:18:33.802Z,6.77
2018-08-08T13:23:38.020Z,6.57
2018-08-08T13:28:42.517Z,5.80
2018-08-08T13:33:46.629Z,8.83
2018-08-08T13:38:50.861Z,5.90
2018-08-08T13:43:55.001Z,6.73
2018-08-08T13:48:59.314Z,5.77
2018-08-08T13:54:03.590Z,5.30
2018-08-08T13:59:07.755Z,7.53
2018-08-08T14:04:11.886Z,7.37
2018-08-08T14:09:15.998Z,5.77
2018-08-08T14:14:20.147Z,9.27
2018-08-08T14:19:24.360Z,5.77
2018-08-08T14:24:28.757Z,6.20
2018-08-08T14:29:33.013Z,5.67
2018-08-08T14:34:37.153Z,6.53
2018-08-08T14:39:41.357Z,6.07
2018-08-08T14:44:45.559Z,9.07
2018-08-08T14:49:49.740Z,6.30
2018-08-08T14:54:53.884Z,8.57
2018-08-08T14:59:58.086Z,6.43
2018-08-08T15:05:02.196Z,5.50
2018-08-08T15:10:06.421Z,5.03
2018-08-08T15:15:11.431Z,8.33
2018-08-08T15:20:15.772Z,4.53
2018-08-08T15:25:20.094Z,4.40
2018-08-08T15:30:25.212Z,6.93
2018-08-08T15:35:29.420Z,7.33
2018-08-08T15:40:33.678Z,4.90
2018-08-08T15:45:37.819Z,8.90
2018-08-08T15:50:43.323Z,7.77
2018-08-08T15:55:47.511Z,5.60
2018-08-08T16:00:51.864Z,6.30
2018-08-08T16:05:56.030Z,6.13
2018-08-08T16:11:00.345Z,4.40
2018-08-08T16:16:04.552Z,4.50
2018-08-08T16:21:08.704Z,4.30
2018-08-08T16:26:13.748Z,4.10
2018-08-08T16:31:18.075Z,4.13
2018-08-08T16:36:22.206Z,5.10
2018-08-08T16:41:26.413Z,3.03
2018-08-08T16:46:30.615Z,4.43
2018-08-08T16:51:34.950Z,4.37
2018-08-08T16:56:39.056Z,3.87
2018-08-08T17:01:43.424Z,8.43
2018-08-08T17:06:47.588Z,3.17
2018-08-08T17:11:51.761Z,6.83
2018-08-08T17:16:56.683Z,9.87
2018-08-08T17:22:01.459Z,4.50
2018-08-08T17:27:05.592Z,3.83
2018-08-08T17:32:10.177Z,4.13
2018-08-08T17:37:14.300Z,4.07
2018-08-08T17:42:18.565Z,3.90
2018-08-08T17:47:22.896Z,6.00
2018-08-08T17:52:27.066Z,4.90
2018-08-08T17:57:32.176Z,3.93
2018-08-08T18:02:37.352Z,3.80
2018-08-08T18:07:41.478Z,4.77
2018-08-08T18:12:45.507Z,4.77
2018-08-08T18:17:49.820Z,7.57
2018-08-08T18:22:53.947Z,4.37
2018-08-08T18:27:58.054Z,5.57
2018-08-08T18:33:02.623Z,4.53
2018-08-08T18:38:07.946Z,9.63
2018-08-08T18:43:12.583Z,3.93
2018-08-08T18:48:16.895Z,2.80
2018-08-08T18:53:21.127Z,5.23
2018-08-08T18:58:25.367Z,5.13
2018-08-08T19:03:29.428Z,4.03
2018-08-08T19:08:33.536Z,4.23
2018-08-08T19:13:37.747Z,2.73
2018-08-08T19:18:42.075Z,5.57
2018-08-08T19:23:46.562Z,2.73
2018-08-08T19:28:50.858Z,3.67
2018-08-08T19:33:55.037Z,2.90
2018-08-08T19:39:00.763Z,3.40
2018-08-08T19:44:05.124Z,3.97
2018-08-08T19:49:09.305Z,3.93
2018-08-08T19:54:13.997Z,2.87
2018-08-08T19:59:18.371Z,3.30
2018-08-08T20:04:22.457Z,4.13
2018-08-08T20:09:26.648Z,2.77
2018-08-08T20:14:30.737Z,2.80
2018-08-08T20:19:34.873Z,2.80
2018-08-08T20:24:39.025Z,3.40
2018-08-08T20:29:44.046Z,3.10
2018-08-08T20:34:48.365Z,2.37
2018-08-08T20:39:52.539Z,3.50
2018-08-08T20:44:56.649Z,3.83
2018-08-08T20:50:00.722Z,3.10
2018-08-08T20:55:04.939Z,3.10
2018-08-08T21:00:09.235Z,4.53
2018-08-08T21:05:13.694Z,3.00
2018-08-08T21:10:18.464Z,5.10
2018-08-08T21:15:22.752Z,2.43
2018-08-08T21:20:26.928Z,4.17
2018-08-08T21:25:31.389Z,3.30
2018-08-08T21:30:35.718Z,3.63
2018-08-08T21:35:39.961Z,3.50
2018-08-08T21:40:44.446Z,3.03
2018-08-08T21:45:48.673Z,3.70
2018-08-08T21:50:52.860Z,2.63
2018-08-08T21:56:08.249Z,4.93
2018-08-08T22:01:23.540Z,2.70
2018-08-08T22:06:41.544Z,2.47
2018-08-08T22:11:57.038Z,2.90
2018-08-08T22:17:12.321Z,3.60
2018-08-08T22:22:16.433Z,4.03
2018-08-08T22:27:20.597Z,4.50
2018-08-08T22:32:24.726Z,3.73
2018-08-08T22:37:29.965Z,3.47
2018-08-08T22:42:34.073Z,2.77
2018-08-08T22:47:38.204Z,4.90
2018-08-08T22:52:42.377Z,4.80
2018-08-08T22:57:46.529Z,4.33
2018-08-08T23:02:50.680Z,3.40
2018-08-08T23:20:40.952Z,5.00
2018-08-08T23:25:45.064Z,4.40
2018-08-08T23:30:49.273Z,5.47
2018-08-08T23:35:53.585Z,5.57
2018-08-08T23:40:57.730Z,7.27
2018-08-08T23:46:01.963Z,5.67
2018-08-08T23:51:06.088Z,4.53
2018-08-08T23:56:10.628Z,6.00
